Time;durP1;ratioP1;P1;durP2;ratioP2;P2;SDS_P1;SDS_P2;PMS_P1;PMS_P2;Temp;Humidity;BMP_temperature;BMP_pressure;BME280_temperature;BME280_humidity;BME280_pressure;Samples;Min_cycle;Max_cycle;Signal;HPM_P1;HPM_P2
2021/10/20 00:01:28;;;;;;;7.18;6.03;;;;;;;12.01;76.88;100720.63;5028122;28;20033;-41
2021/10/20 00:03:53;;;;;;;7.93;6.57;;;;;;;12.03;76.91;100717.94;5030051;28;20032;-41
2021/10/20 00:06:27;;;;;;;7.63;6.85;;;;;;;12.03;77.01;100717.94;5026889;28;20018;-41
2021/10/20 00:08:57;;;;;;;7.03;6.22;;;;;;;12.03;76.79;100715.31;5027087;28;20112;-41
2021/10/20 00:11:22;;;;;;;7.45;6.75;;;;;;;12.01;77.11;100701.25;5027399;28;20021;-41
2021/10/20 00:13:47;;;;;;;8.02;6.35;;;;;;;12.01;76.83;100710.03;5027316;28;20396;-42
2021/10/20 00:16:15;;;;;;;7.82;7.03;;;;;;;12.02;76.96;100705.63;5028692;28;20028;-41
2021/10/20 00:18:45;;;;;;;7.00;6.32;;;;;;;12.02;76.64;100701.25;5028796;28;20029;-42
2021/10/20 00:21:37;;;;;;;6.80;6.03;;;;;;;12.03;77.00;100699.44;5029774;28;20021;-41
2021/10/20 00:24:02;;;;;;;7.60;6.57;;;;;;;12.03;76.89;100696.81;5025337;28;20511;-41
2021/10/20 00:26:31;;;;;;;7.72;6.85;;;;;;;12.02;76.95;100688.03;5027344;28;20022;-40
2021/10/20 00:28:56;;;;;;;7.22;6.57;;;;;;;12.02;76.96;100684.50;5029727;28;20485;-41
2021/10/20 00:31:22;;;;;;;7.32;6.63;;;;;;;12.01;76.84;100678.31;5026298;28;20071;-41
2021/10/20 00:33:47;;;;;;;7.55;6.72;;;;;;;12.02;76.69;100666.00;5026727;28;20029;-41
2021/10/20 00:36:13;;;;;;;8.10;6.95;;;;;;;12.03;76.67;100667.72;5028465;28;20029;-40
2021/10/20 00:38:38;;;;;;;6.95;6.28;;;;;;;12.03;76.75;100660.69;5030202;28;20082;-41
2021/10/20 00:41:04;;;;;;;8.35;6.88;;;;;;;12.03;76.70;100650.09;5030877;28;20025;-41
2021/10/20 00:43:29;;;;;;;7.65;6.72;;;;;;;12.04;76.67;100645.72;5029701;28;20105;-42
2021/10/20 00:45:54;;;;;;;7.80;6.93;;;;;;;12.04;76.80;100648.34;5030226;28;20096;-41
2021/10/20 00:48:20;;;;;;;7.60;6.43;;;;;;;12.03;76.75;100638.66;5030090;28;20041;-41
2021/10/20 00:50:45;;;;;;;7.57;6.88;;;;;;;12.02;76.81;100637.81;5027922;28;20029;-41
2021/10/20 00:53:10;;;;;;;8.20;7.40;;;;;;;12.04;77.13;100624.56;5028976;28;20117;-40
2021/10/20 00:55:37;;;;;;;8.93;8.02;;;;;;;12.04;77.24;100630.69;5028402;28;20026;-41
2021/10/20 00:58:04;;;;;;;8.38;7.55;;;;;;;12.04;77.34;100629.84;5030493;28;20025;-40
2021/10/20 01:00:32;;;;;;;8.50;7.53;;;;;;;12.05;77.20;100631.59;5029317;28;20096;-41
2021/10/20 01:02:57;;;;;;;8.02;7.30;;;;;;;12.05;77.30;100631.59;5029361;28;20032;-41
2021/10/20 01:05:23;;;;;;;9.23;8.10;;;;;;;12.05;77.42;100621.00;5026674;28;20030;-41
2021/10/20 01:07:50;;;;;;;9.70;8.27;;;;;;;12.05;77.51;100628.94;5030804;28;20108;-41
2021/10/20 01:10:15;;;;;;;9.93;8.45;;;;;;;12.06;77.38;100628.06;5028909;28;20037;-41
2021/10/20 01:12:42;;;;;;;9.90;8.93;;;;;;;12.06;77.54;100628.06;5026347;28;20026;-41
2021/10/20 01:15:13;;;;;;;9.65;8.60;;;;;;;12.06;77.22;100628.94;5029948;28;20108;-41
2021/10/20 01:17:38;;;;;;;9.18;8.23;;;;;;;12.06;77.58;100617.50;5031555;28;20477;-41
2021/10/20 01:20:05;;;;;;;8.55;7.75;;;;;;;12.08;77.32;100620.13;5034240;28;20036;-41
2021/10/20 01:22:31;;;;;;;10.77;9.13;;;;;;;12.06;77.30;100610.44;5031398;28;20031;-40
2021/10/20 01:24:59;;;;;;;9.52;8.15;;;;;;;12.08;77.91;100598.97;5036024;28;20021;-40
2021/10/20 01:27:25;;;;;;;9.77;8.60;;;;;;;12.07;77.45;100598.09;5029101;28;20037;-41
2021/10/20 01:29:51;;;;;;;8.38;7.57;;;;;;;12.07;77.42;100590.16;5032118;28;20040;-41
2021/10/20 01:32:20;;;;;;;10.13;8.93;;;;;;;12.07;77.58;100590.16;5032236;28;20396;-41
2021/10/20 01:34:45;;;;;;;10.50;8.90;;;;;;;12.06;77.78;100581.38;5047651;28;20036;-41
2021/10/20 01:37:11;;;;;;;9.48;8.57;;;;;;;12.08;77.66;100578.69;5033889;28;20022;-42
2021/10/20 01:39:37;;;;;;;11.15;9.27;;;;;;;12.07;77.84;100571.66;5031954;28;20025;-41
2021/10/20 01:42:03;;;;;;;9.98;8.50;;;;;;;12.09;77.94;100569.88;5032622;28;20025;-41
2021/10/20 01:44:28;;;;;;;10.52;9.23;;;;;;;12.09;77.59;100569.88;5034327;28;20032;-41
2021/10/20 01:46:53;;;;;;;9.93;8.93;;;;;;;12.09;77.95;100580.44;5032458;28;20514;-41
2021/10/20 01:49:19;;;;;;;10.43;8.75;;;;;;;12.09;77.98;100575.16;5032501;28;20503;-41
2021/10/20 01:51:44;;;;;;;9.60;8.60;;;;;;;12.10;77.74;100586.63;5033743;28;20489;-41
2021/10/20 01:54:09;;;;;;;10.80;9.77;;;;;;;12.09;78.10;100577.78;5033270;28;20156;-41
2021/10/20 01:56:35;;;;;;;10.20;9.07;;;;;;;12.10;77.78;100573.41;5032565;28;20025;-41
2021/10/20 01:59:01;;;;;;;9.30;8.35;;;;;;;12.10;77.87;100570.75;5033819;28;20033;-41
2021/10/20 02:01:26;;;;;;;10.25;9.15;;;;;;;12.09;77.59;100564.56;5032454;28;21350;-40
2021/10/20 02:03:51;;;;;;;10.27;8.68;;;;;;;12.10;77.69;100568.09;5033138;28;20465;-42
2021/10/20 02:06:19;;;;;;;9.65;8.65;;;;;;;12.10;77.70;100563.66;5032261;28;20029;-41
2021/10/20 02:08:45;;;;;;;10.25;8.43;;;;;;;12.10;77.59;100562.81;5033751;28;20534;-41
2021/10/20 02:11:10;;;;;;;9.52;8.52;;;;;;;12.09;77.86;100545.19;5032378;28;20439;-41
2021/10/20 02:13:36;;;;;;;9.38;8.45;;;;;;;12.11;77.80;100557.50;5030918;28;20036;-41
2021/10/20 02:16:03;;;;;;;11.48;9.02;;;;;;;12.10;77.99;100545.16;5030547;28;20013;-41
2021/10/20 02:18:29;;;;;;;9.98;8.68;;;;;;;12.09;77.76;100546.06;5032912;28;20636;-40
2021/10/20 02:20:54;;;;;;;10.50;9.48;;;;;;;12.10;77.81;100531.94;5030142;28;20021;-40
2021/10/20 02:23:19;;;;;;;10.15;8.70;;;;;;;12.10;77.54;100542.53;5029827;28;20585;-41
2021/10/20 02:25:45;;;;;;;9.57;8.65;;;;;;;12.10;77.91;100528.44;5032225;28;20090;-41
2021/10/20 02:28:10;;;;;;;9.95;9.02;;;;;;;12.10;77.69;100534.59;5031758;28;20420;-40
2021/10/20 02:30:36;;;;;;;8.95;7.95;;;;;;;12.10;77.70;100536.38;5031873;28;20029;-40
2021/10/20 02:33:01;;;;;;;10.60;8.52;;;;;;;12.11;77.67;100531.06;5032465;28;20472;-41
2021/10/20 02:35:26;;;;;;;11.52;8.70;;;;;;;12.11;77.75;100531.06;5030033;28;20017;-41
2021/10/20 02:37:52;;;;;;;10.20;8.80;;;;;;;12.11;77.34;100525.78;5030919;28;20104;-40
2021/10/20 02:40:17;;;;;;;10.63;8.15;;;;;;;12.10;77.65;100529.31;5032975;28;20154;-41
2021/10/20 02:42:42;;;;;;;10.40;9.02;;;;;;;12.11;77.84;100523.13;5027728;28;20055;-41
2021/10/20 02:45:13;;;;;;;10.52;9.52;;;;;;;12.08;77.45;100519.66;5026534;28;20103;-41
2021/10/20 02:47:38;;;;;;;9.20;8.20;;;;;;;12.10;77.77;100516.09;5032122;28;20045;-40
2021/10/20 02:50:05;;;;;;;9.52;8.30;;;;;;;12.10;77.49;100521.38;5030056;28;20029;-41
2021/10/20 02:52:30;;;;;;;9.68;8.68;;;;;;;12.11;77.48;100512.56;5032064;28;20029;-41
2021/10/20 02:54:55;;;;;;;10.00;9.00;;;;;;;12.11;77.26;100512.56;5031690;28;20029;-41
2021/10/20 02:57:21;;;;;;;9.00;8.07;;;;;;;12.13;77.46;100507.22;5028827;28;20503;-41
2021/10/20 02:59:47;;;;;;;9.35;8.45;;;;;;;12.11;77.24;100499.34;5029761;28;20025;-40
2021/10/20 03:02:12;;;;;;;9.48;8.40;;;;;;;12.12;77.57;100503.72;5028911;28;20497;-41
2021/10/20 03:04:38;;;;;;;8.43;7.63;;;;;;;12.11;77.44;100491.41;5027259;28;20036;-41
2021/10/20 03:07:03;;;;;;;8.98;8.07;;;;;;;12.12;77.32;100502.84;5029494;28;20032;-41
2021/10/20 03:09:28;;;;;;;9.38;8.38;;;;;;;12.11;77.55;100488.78;5031270;28;20119;-41
2021/10/20 03:11:54;;;;;;;10.30;9.23;;;;;;;12.12;77.36;100495.78;5028519;28;20025;-41
2021/10/20 03:14:19;;;;;;;8.75;7.68;;;;;;;12.10;77.15;100487.00;5030559;28;20021;-41
2021/10/20 03:16:44;;;;;;;10.82;9.73;;;;;;;12.11;77.29;100488.78;5031417;28;20032;-41
2021/10/20 03:19:09;;;;;;;8.15;7.45;;;;;;;12.11;77.36;100491.41;5031211;28;20021;-41
2021/10/20 03:21:35;;;;;;;9.88;8.88;;;;;;;12.10;77.26;100481.72;5031332;28;20419;-41
2021/10/20 03:24:00;;;;;;;10.52;9.43;;;;;;;12.11;77.30;100486.13;5029818;28;20048;-42
2021/10/20 03:26:25;;;;;;;10.35;9.25;;;;;;;12.10;77.42;100479.06;5029004;28;20025;-40
2021/10/20 03:28:51;;;;;;;11.18;9.93;;;;;;;12.11;77.10;100480.84;5029928;28;20053;-41
2021/10/20 03:31:19;;;;;;;10.40;9.30;;;;;;;12.10;77.19;100475.59;5025247;28;20025;-41
2021/10/20 03:33:45;;;;;;;11.32;10.13;;;;;;;12.09;77.26;100477.34;5031588;28;20416;-41
2021/10/20 03:36:10;;;;;;;12.18;9.88;;;;;;;12.10;77.25;100471.16;5033178;28;20041;-41
2021/10/20 03:38:35;;;;;;;9.63;8.63;;;;;;;12.11;77.11;100467.63;5030596;28;20057;-41
2021/10/20 03:41:01;;;;;;;11.15;10.02;;;;;;;12.11;77.23;100472.91;5027789;28;20108;-41
2021/10/20 03:43:26;;;;;;;10.00;8.40;;;;;;;12.11;77.10;100462.34;5029333;28;20033;-41
2021/10/20 03:45:52;;;;;;;8.25;7.45;;;;;;;12.10;76.91;100459.72;5030027;28;20473;-41
2021/10/20 03:48:17;;;;;;;9.48;8.35;;;;;;;12.09;76.71;100450.91;5026980;28;20036;-41
2021/10/20 03:50:42;;;;;;;9.30;8.40;;;;;;;12.05;76.74;100441.25;5030546;28;20041;-40
2021/10/20 03:53:09;;;;;;;9.68;8.75;;;;;;;12.10;76.93;100433.28;5030706;28;20527;-41
2021/10/20 03:55:34;;;;;;;9.95;8.95;;;;;;;12.10;76.91;100439.41;5030982;28;20064;-41
2021/10/20 03:58:01;;;;;;;8.73;7.82;;;;;;;12.09;77.10;100432.41;5031746;28;20045;-41
2021/10/20 04:00:27;;;;;;;8.57;7.78;;;;;;;12.10;77.11;100434.13;5029566;28;20025;-41
2021/10/20 04:02:52;;;;;;;8.73;7.82;;;;;;;12.10;76.70;100433.28;5030260;28;20100;-41
2021/10/20 04:05:19;;;;;;;8.70;7.88;;;;;;;12.10;76.87;100439.41;5028547;28;20627;-41
2021/10/20 04:07:46;;;;;;;8.40;7.60;;;;;;;12.11;77.06;100430.63;5030962;28;20040;-40
2021/10/20 04:10:24;;;;;;;7.43;6.72;;;;;;;12.09;77.07;100432.41;5030753;28;20025;-41
2021/10/20 04:12:50;;;;;;;8.25;7.43;;;;;;;12.09;76.81;100432.41;5031054;28;20065;-41
2021/10/20 04:15:18;;;;;;;8.00;7.10;;;;;;;12.09;77.12;100435.03;5030730;28;20534;-41
2021/10/20 04:17:43;;;;;;;7.28;6.57;;;;;;;12.09;76.97;100437.69;5030820;28;20028;-40
2021/10/20 04:20:10;;;;;;;7.90;7.10;;;;;;;12.09;76.98;100440.34;5030182;28;20029;-41
2021/10/20 04:22:36;;;;;;;6.93;6.30;;;;;;;12.10;77.03;100443.84;5030137;28;20116;-42
2021/10/20 04:25:05;;;;;;;8.00;7.20;;;;;;;12.09;76.82;100452.66;5028632;28;20029;-41
2021/10/20 04:27:30;;;;;;;7.30;6.60;;;;;;;12.09;77.00;100442.09;5030155;28;20026;-41
2021/10/20 04:29:57;;;;;;;7.30;6.10;;;;;;;12.10;77.09;100444.72;5030436;28;20405;-41
2021/10/20 04:32:22;;;;;;;8.43;7.57;;;;;;;12.10;77.08;100439.41;5028025;28;20393;-41
2021/10/20 04:34:48;;;;;;;8.27;7.47;;;;;;;12.09;76.84;100442.97;5029091;28;20032;-41
2021/10/20 04:37:14;;;;;;;8.20;7.40;;;;;;;12.09;76.98;100432.41;5030295;28;20021;-41
2021/10/20 04:39:39;;;;;;;8.48;7.57;;;;;;;12.10;76.53;100422.72;5031106;28;20546;-41
2021/10/20 04:42:05;;;;;;;7.97;7.20;;;;;;;12.10;76.60;100420.06;5030901;28;20125;-41
2021/10/20 04:44:30;;;;;;;7.40;6.70;;;;;;;12.09;76.76;100416.53;5029918;28;20075;-41
2021/10/20 04:46:55;;;;;;;8.18;7.00;;;;;;;12.10;76.95;100420.91;5031293;28;20037;-41
2021/10/20 04:49:21;;;;;;;7.63;6.57;;;;;;;12.10;76.83;100415.63;5030843;28;20022;-41
2021/10/20 04:51:46;;;;;;;7.95;6.72;;;;;;;12.10;77.02;100415.63;5030086;28;20040;-41
2021/10/20 04:54:11;;;;;;;8.10;7.30;;;;;;;12.08;76.98;100408.63;5027364;28;20029;-41
2021/10/20 04:56:37;;;;;;;8.13;7.28;;;;;;;12.09;77.00;100400.69;5029853;28;20053;-41
2021/10/20 04:59:02;;;;;;;8.90;7.90;;;;;;;12.10;76.80;100399.78;5030157;28;20037;-41
2021/10/20 05:01:29;;;;;;;7.28;6.57;;;;;;;12.09;76.76;100403.31;5028637;28;20037;-40
2021/10/20 05:03:54;;;;;;;8.15;7.35;;;;;;;12.09;76.86;100392.75;5029825;28;20104;-41
2021/10/20 05:06:19;;;;;;;7.80;6.80;;;;;;;12.10;76.95;100397.13;5029658;28;20035;-41
2021/10/20 05:08:45;;;;;;;7.80;7.10;;;;;;;12.10;77.08;100391.00;5031083;28;20559;-41
2021/10/20 05:11:10;;;;;;;7.50;6.78;;;;;;;12.09;76.76;100387.47;5029926;28;20025;-41
2021/10/20 05:13:36;;;;;;;10.32;7.88;;;;;;;12.09;76.94;100384.81;5030342;28;20017;-41
2021/10/20 05:16:02;;;;;;;8.73;7.82;;;;;;;12.08;76.72;100388.38;5028777;28;20025;-40
2021/10/20 05:18:27;;;;;;;8.93;6.53;;;;;;;12.09;76.73;100389.22;5029788;28;20095;-40
2021/10/20 05:20:52;;;;;;;8.20;7.10;;;;;;;12.09;76.60;100387.47;5030517;28;20500;-41
2021/10/20 05:23:18;;;;;;;8.07;7.25;;;;;;;12.08;76.87;100371.63;5028122;28;20096;-40
2021/10/20 05:25:43;;;;;;;7.60;6.68;;;;;;;12.09;76.95;100378.66;5027771;28;20036;-40
2021/10/20 05:28:09;;;;;;;8.60;7.32;;;;;;;12.07;76.46;100370.75;5031112;28;20079;-40
2021/10/20 05:30:34;;;;;;;8.00;7.20;;;;;;;12.08;76.72;100366.34;5030339;28;20113;-40
2021/10/20 05:33:00;;;;;;;7.40;6.70;;;;;;;12.07;76.60;100360.19;5027468;28;20435;-40
2021/10/20 05:35:26;;;;;;;7.57;6.78;;;;;;;12.08;76.69;100351.38;5030887;28;20022;-41
2021/10/20 05:37:53;;;;;;;8.77;6.75;;;;;;;12.09;76.32;100357.50;5030525;28;20029;-41
2021/10/20 05:40:20;;;;;;;7.60;6.32;;;;;;;12.07;76.55;100357.53;5030466;28;20029;-40
2021/10/20 05:42:45;;;;;;;6.97;6.28;;;;;;;12.06;76.28;100358.44;5030210;28;20033;-42
2021/10/20 05:45:11;;;;;;;6.82;6.22;;;;;;;12.07;76.45;100344.31;5027446;28;20021;-40
2021/10/20 05:47:36;;;;;;;8.07;7.28;;;;;;;12.07;76.25;100349.59;5029832;28;20104;-40
2021/10/20 05:50:03;;;;;;;7.07;6.18;;;;;;;12.06;76.28;100348.75;5029874;28;20028;-40
2021/10/20 05:52:28;;;;;;;6.70;6.10;;;;;;;12.08;76.59;100345.19;5028902;28;20014;-41
2021/10/20 05:54:53;;;;;;;6.78;6.20;;;;;;;12.08;76.32;100346.06;5030612;28;20384;-40
2021/10/20 05:57:19;;;;;;;6.22;5.63;;;;;;;12.06;76.39;100338.19;5030430;28;20029;-41
2021/10/20 05:59:45;;;;;;;8.00;6.75;;;;;;;12.08;76.50;100347.84;5030715;28;20017;-40
2021/10/20 06:02:14;;;;;;;6.43;5.82;;;;;;;12.06;76.37;100356.69;5026698;28;20060;-41
2021/10/20 06:04:39;;;;;;;6.63;6.03;;;;;;;12.06;76.50;100337.28;5028489;28;20083;-40
2021/10/20 06:07:04;;;;;;;6.35;5.75;;;;;;;12.06;76.35;100348.75;5033847;28;20021;-41
2021/10/20 06:09:30;;;;;;;7.20;6.50;;;;;;;12.07;76.11;100362.81;5030690;28;20587;-41
2021/10/20 06:11:55;;;;;;;7.60;6.38;;;;;;;12.07;76.11;100354.88;5034194;28;20108;-41
2021/10/20 06:14:20;;;;;;;7.15;6.45;;;;;;;12.06;76.19;100354.03;5033549;28;20526;-41
2021/10/20 06:16:46;;;;;;;7.93;6.72;;;;;;;12.06;76.15;100353.16;5027700;28;20022;-41
2021/10/20 06:19:14;;;;;;;7.53;6.70;;;;;;;12.06;76.39;100342.59;5028728;28;20432;-41
2021/10/20 06:21:39;;;;;;;7.43;5.93;;;;;;;12.06;76.43;100337.28;5033710;28;20033;-40
2021/10/20 06:24:05;;;;;;;6.28;5.68;;;;;;;12.06;75.98;100345.22;5026354;28;20033;-40
2021/10/20 06:26:30;;;;;;;6.50;5.90;;;;;;;12.06;76.07;100334.66;5030440;28;20472;-40
2021/10/20 06:28:57;;;;;;;7.97;6.50;;;;;;;12.06;76.06;100329.38;5030963;28;20021;-40
2021/10/20 06:31:22;;;;;;;6.45;5.75;;;;;;;12.06;76.19;100321.44;5030475;28;20094;-40
2021/10/20 06:33:49;;;;;;;6.43;5.45;;;;;;;12.05;76.04;100311.75;5046273;28;20118;-41
2021/10/20 06:36:29;;;;;;;6.60;6.00;;;;;;;12.08;76.55;100313.47;5028793;28;20021;-41
2021/10/20 06:38:58;;;;;;;6.22;5.68;;;;;;;12.07;76.03;100317.88;5033424;28;20033;-40
2021/10/20 06:41:24;;;;;;;7.13;6.50;;;;;;;12.05;75.83;100317.91;5028164;28;20030;-41
2021/10/20 06:43:49;;;;;;;7.05;6.10;;;;;;;12.06;75.79;100314.38;5031957;28;20074;-41
2021/10/20 06:46:15;;;;;;;5.88;5.28;;;;;;;12.06;75.85;100318.78;5032537;28;20104;-40
2021/10/20 06:48:40;;;;;;;6.93;6.32;;;;;;;12.05;76.05;100325.84;5033173;28;20112;-40
2021/10/20 06:51:06;;;;;;;6.97;6.00;;;;;;;12.07;75.61;100320.53;5030380;28;20017;-41
2021/10/20 06:54:18;;;;;;;6.00;5.40;;;;;;;12.07;75.73;100317.88;5032425;28;20100;-41
2021/10/20 06:56:49;;;;;;;5.70;5.13;;;;;;;12.08;76.12;100317.00;5032485;28;20028;-41
2021/10/20 06:59:17;;;;;;;7.32;6.18;;;;;;;12.07;75.79;100315.25;5029962;28;20022;-40
2021/10/20 07:01:43;;;;;;;7.43;5.95;;;;;;;12.08;76.19;100313.47;5030602;28;20088;-41
2021/10/20 07:04:10;;;;;;;6.88;6.22;;;;;;;12.08;75.81;100303.78;5032887;28;20034;-40
2021/10/20 07:06:37;;;;;;;6.72;5.68;;;;;;;12.08;75.72;100293.22;5029849;28;20092;-40
2021/10/20 07:09:02;;;;;;;7.57;5.90;;;;;;;12.08;76.02;100300.25;5032500;28;20052;-41
2021/10/20 07:11:28;;;;;;;6.03;5.45;;;;;;;12.08;76.05;100306.44;5023596;28;20460;-40
2021/10/20 07:13:53;;;;;;;6.38;5.75;;;;;;;12.09;75.78;100305.53;5032373;28;20025;-40
2021/10/20 07:16:18;;;;;;;6.20;5.60;;;;;;;12.08;75.57;100305.53;5032089;28;20021;-40
2021/10/20 07:18:44;;;;;;;6.28;5.65;;;;;;;12.08;76.08;100303.78;5032921;28;20024;-41
2021/10/20 07:21:09;;;;;;;5.63;4.88;;;;;;;12.10;75.64;100307.25;5027121;28;20032;-41
2021/10/20 07:23:34;;;;;;;5.43;4.93;;;;;;;12.09;76.04;100300.22;5032725;28;20028;-41
2021/10/20 07:25:59;;;;;;;6.25;5.65;;;;;;;12.08;75.75;100309.06;5028626;28;20017;-40
2021/10/20 07:28:25;;;;;;;5.80;5.18;;;;;;;12.09;76.05;100300.22;5029940;28;20029;-41
2021/10/20 07:30:50;;;;;;;5.50;5.00;;;;;;;12.10;75.81;100312.53;5031826;28;20017;-41
2021/10/20 07:33:15;;;;;;;5.13;4.63;;;;;;;12.09;75.96;100305.53;5030963;28;20021;-41
2021/10/20 07:35:41;;;;;;;5.30;4.80;;;;;;;12.10;75.83;100287.91;5032266;28;20074;-41
2021/10/20 07:38:06;;;;;;;5.30;4.80;;;;;;;12.09;75.89;100284.38;5032587;28;20014;-41
2021/10/20 07:40:31;;;;;;;5.65;5.15;;;;;;;12.10;75.83;100277.31;5029404;28;20025;-41
2021/10/20 07:42:57;;;;;;;5.90;4.97;;;;;;;12.11;75.81;100279.94;5028103;28;20051;-41
2021/10/20 07:45:23;;;;;;;6.53;5.13;;;;;;;12.10;75.70;100272.03;5030765;28;20068;-41
2021/10/20 07:47:49;;;;;;;5.72;5.13;;;;;;;12.10;75.97;100264.94;5032306;28;20102;-41
2021/10/20 07:50:16;;;;;;;5.95;4.75;;;;;;;12.10;75.68;100259.66;5032479;28;20108;-40
2021/10/20 07:52:43;;;;;;;5.47;4.97;;;;;;;12.12;75.79;100267.56;5024752;28;20053;-41
2021/10/20 07:55:09;;;;;;;5.20;4.70;;;;;;;12.10;75.79;100249.09;5028696;28;20026;-41
2021/10/20 07:57:35;;;;;;;5.03;4.53;;;;;;;12.10;75.61;100251.75;5032465;28;20058;-41
2021/10/20 08:00:00;;;;;;;6.63;4.90;;;;;;;12.12;75.62;100246.41;5026064;28;20121;-41
2021/10/20 08:02:26;;;;;;;6.93;5.10;;;;;;;12.10;75.76;100238.53;5029987;28;20488;-40
2021/10/20 08:04:51;;;;;;;5.68;5.13;;;;;;;12.11;75.64;100240.28;5030737;28;20028;-40
2021/10/20 08:07:16;;;;;;;5.18;4.57;;;;;;;12.11;75.51;100237.63;5027224;28;20009;-41
2021/10/20 08:09:42;;;;;;;4.55;4.20;;;;;;;12.12;75.94;100242.00;5025346;28;20401;-41
2021/10/20 08:12:09;;;;;;;5.40;4.90;;;;;;;12.12;75.75;100238.50;5030123;28;20389;-41
2021/10/20 08:14:40;;;;;;;5.82;5.32;;;;;;;12.11;75.80;100237.63;5029720;28;20163;-41
2021/10/20 08:17:06;;;;;;;5.28;4.78;;;;;;;12.13;75.69;100229.66;5031370;28;20021;-40
2021/10/20 08:19:31;;;;;;;5.60;4.90;;;;;;;12.13;75.70;100233.16;5031359;28;20040;-40
2021/10/20 08:21:56;;;;;;;4.97;4.47;;;;;;;12.12;75.44;100223.50;5030918;28;20047;-41
2021/10/20 08:24:22;;;;;;;5.75;4.57;;;;;;;12.13;75.46;100224.34;5031224;28;20017;-40
2021/10/20 08:26:47;;;;;;;5.40;4.90;;;;;;;12.12;75.49;100226.16;5027336;28;20025;-41
2021/10/20 08:29:12;;;;;;;5.55;4.80;;;;;;;12.12;75.70;100202.38;5029223;28;20040;-41
2021/10/20 08:31:38;;;;;;;5.22;4.57;;;;;;;12.14;75.46;100208.47;5030616;28;20500;-40
2021/10/20 08:34:06;;;;;;;4.82;4.43;;;;;;;12.13;75.55;100209.38;5031503;28;20036;-40
2021/10/20 08:36:33;;;;;;;4.75;4.35;;;;;;;12.14;75.71;100200.53;5031403;28;20029;-41
2021/10/20 08:38:59;;;;;;;5.45;4.95;;;;;;;12.14;75.53;100189.97;5031353;28;20029;-41
2021/10/20 08:41:24;;;;;;;4.97;4.57;;;;;;;12.15;75.25;100198.78;5027697;28;20490;-40
2021/10/20 08:43:49;;;;;;;6.18;5.50;;;;;;;12.14;75.27;100192.59;5028839;28;20120;-40
2021/10/20 08:46:21;;;;;;;6.32;4.95;;;;;;;12.16;75.14;100184.63;5029990;28;20485;-43
2021/10/20 08:48:46;;;;;;;5.50;5.00;;;;;;;12.16;75.15;100182.88;5028759;28;20056;-41
2021/10/20 08:51:11;;;;;;;4.95;4.55;;;;;;;12.16;75.32;100179.34;5031072;28;20068;-41
2021/10/20 08:53:37;;;;;;;5.15;4.43;;;;;;;12.16;75.40;100182.88;5028494;28;20022;-41
2021/10/20 08:56:02;;;;;;;5.13;4.63;;;;;;;12.17;75.39;100159.97;5030758;28;20014;-41
2021/10/20 08:58:29;;;;;;;5.28;4.75;;;;;;;12.17;75.22;100166.09;5030875;28;20441;-40
2021/10/20 09:00:54;;;;;;;5.10;4.60;;;;;;;12.18;75.15;100161.69;5030624;28;20025;-41
2021/10/20 09:03:20;;;;;;;5.35;4.85;;;;;;;12.18;75.26;100162.53;5030753;28;20026;-41
2021/10/20 09:05:45;;;;;;;4.80;4.40;;;;;;;12.18;75.29;100167.81;5030573;28;20079;-40
2021/10/20 09:08:10;;;;;;;5.93;4.82;;;;;;;12.19;75.39;100148.44;5031181;28;20021;-41
2021/10/20 09:10:36;;;;;;;6.47;4.97;;;;;;;12.21;75.19;100152.81;5030378;28;20025;-40
2021/10/20 09:13:02;;;;;;;5.82;5.15;;;;;;;12.20;75.19;100159.88;5030726;28;20021;-40
2021/10/20 09:15:33;;;;;;;7.07;5.10;;;;;;;12.22;75.14;100165.13;5030123;28;20477;-41
2021/10/20 09:18:01;;;;;;;4.57;4.07;;;;;;;12.22;75.19;100151.91;5027118;28;20702;-40
2021/10/20 09:20:41;;;;;;;6.28;4.78;;;;;;;12.23;75.05;100150.97;5029514;28;20125;-40
2021/10/20 09:23:18;;;;;;;4.90;4.50;;;;;;;12.23;75.18;100140.41;5025742;28;20088;-40
2021/10/20 09:25:56;;;;;;;6.15;4.65;;;;;;;12.25;74.94;100146.53;5024738;28;20024;-41
2021/10/20 09:28:22;;;;;;;5.05;4.65;;;;;;;12.23;74.90;100143.06;5026351;28;20026;-41
2021/10/20 09:30:48;;;;;;;6.93;5.13;;;;;;;12.25;74.93;100133.31;5026267;28;20020;-41
2021/10/20 09:33:13;;;;;;;5.80;5.10;;;;;;;12.25;74.75;100125.41;5027415;28;20037;-40
2021/10/20 09:35:39;;;;;;;5.80;5.07;;;;;;;12.27;75.07;100124.44;5027587;28;20036;-40
2021/10/20 09:38:05;;;;;;;5.35;4.85;;;;;;;12.25;74.77;100133.31;5028983;28;20026;-41
2021/10/20 09:40:36;;;;;;;5.80;4.97;;;;;;;12.26;75.12;100128.00;5034192;28;20481;-41
2021/10/20 09:43:03;;;;;;;5.72;4.85;;;;;;;12.28;75.15;100127.97;5029429;28;20052;-41
2021/10/20 09:45:33;;;;;;;6.30;5.45;;;;;;;12.29;74.79;100132.34;5031518;28;20552;-41
2021/10/20 09:48:14;;;;;;;5.60;4.63;;;;;;;12.29;75.10;100122.63;5048178;28;20032;-41
2021/10/20 09:51:10;;;;;;;5.63;5.13;;;;;;;12.31;75.09;100112.03;5033681;28;20373;-40
2021/10/20 09:53:41;;;;;;;5.70;5.20;;;;;;;12.31;75.10;100112.88;5033680;28;20037;-41
2021/10/20 09:56:31;;;;;;;5.63;5.05;;;;;;;12.33;74.97;100102.25;5027348;28;20026;-41
2021/10/20 09:58:58;;;;;;;6.20;5.03;;;;;;;12.33;75.05;100102.25;5033620;28;20437;-41
2021/10/20 10:01:25;;;;;;;6.75;5.00;;;;;;;12.35;75.06;100107.50;5034173;28;20029;-41
2021/10/20 10:03:52;;;;;;;6.05;5.05;;;;;;;12.35;75.06;100100.47;5025342;28;20381;-41
2021/10/20 10:06:17;;;;;;;6.30;5.32;;;;;;;12.36;74.92;100091.63;5033431;28;20032;-40
2021/10/20 10:08:46;;;;;;;10.90;5.70;;;;;;;12.37;75.36;100081.91;5031780;28;20029;-40
2021/10/20 10:11:12;;;;;;;5.45;4.82;;;;;;;12.37;75.50;100064.25;5033780;28;20027;-40
2021/10/20 10:13:50;;;;;;;5.55;5.05;;;;;;;12.39;75.42;100058.94;5034039;28;20022;-40
2021/10/20 10:16:19;;;;;;;5.82;4.40;;;;;;;12.39;75.19;100074.78;5029872;28;20013;-41
2021/10/20 10:18:45;;;;;;;5.72;4.72;;;;;;;12.40;75.15;100066.81;5032205;28;20049;-40
2021/10/20 10:21:40;;;;;;;6.55;5.32;;;;;;;12.41;75.20;100057.97;5032196;28;20480;-41
2021/10/20 10:24:13;;;;;;;5.68;5.10;;;;;;;12.42;75.52;100062.38;5021265;28;20045;-40
2021/10/20 10:27:08;;;;;;;6.20;5.57;;;;;;;12.43;75.32;100066.75;5030277;28;20018;-40
2021/10/20 10:29:46;;;;;;;6.78;5.55;;;;;;;12.44;75.63;100035.88;5029059;28;20087;-40
2021/10/20 10:32:11;;;;;;;6.45;5.13;;;;;;;12.44;75.66;100042.03;5029779;28;20029;-41
2021/10/20 10:34:45;;;;;;;5.82;5.22;;;;;;;12.45;75.57;100027.88;5028679;28;20072;-40
2021/10/20 10:37:26;;;;;;;6.43;5.35;;;;;;;12.45;75.62;100022.59;5032554;28;20040;-41
2021/10/20 10:39:52;;;;;;;6.10;5.25;;;;;;;12.48;75.51;100028.72;5028169;28;20056;-40
2021/10/20 10:42:17;;;;;;;5.85;5.25;;;;;;;12.48;75.47;99999.63;5032250;28;20053;-40
2021/10/20 10:44:50;;;;;;;5.78;5.28;;;;;;;12.49;75.82;99993.44;5028347;28;20108;-41
2021/10/20 10:47:28;;;;;;;5.55;5.07;;;;;;;12.50;75.46;99992.53;5026327;28;20507;-40
2021/10/20 10:49:56;;;;;;;7.35;5.88;;;;;;;12.51;75.60;99999.56;5024446;28;20052;-40
2021/10/20 10:52:35;;;;;;;6.38;5.78;;;;;;;12.51;75.76;99978.41;5028690;28;20013;-41
2021/10/20 10:55:17;;;;;;;5.90;5.30;;;;;;;12.51;75.57;99973.94;5030214;28;20587;-41
2021/10/20 10:57:56;;;;;;;5.90;5.30;;;;;;;12.53;75.71;99965.97;5033224;28;20025;-40
2021/10/20 11:00:21;;;;;;;6.13;5.22;;;;;;;12.53;75.94;99960.69;5031165;28;20045;-40
2021/10/20 11:02:51;;;;;;;6.00;5.40;;;;;;;12.54;75.77;99936.00;5031644;28;20097;-40
2021/10/20 11:05:19;;;;;;;5.88;5.32;;;;;;;12.55;75.81;99940.34;5026878;28;20505;-40
2021/10/20 11:07:47;;;;;;;5.78;5.15;;;;;;;12.56;75.94;99939.44;5030375;28;20052;-40
2021/10/20 11:10:14;;;;;;;9.02;5.55;;;;;;;12.57;76.03;99925.28;5029620;28;20049;-40
2021/10/20 11:12:39;;;;;;;6.15;5.60;;;;;;;12.57;75.77;99923.53;5027002;28;20025;-40
2021/10/20 11:15:11;;;;;;;5.78;5.25;;;;;;;12.57;75.83;99920.88;5024433;28;20029;-40
2021/10/20 11:17:37;;;;;;;6.72;5.55;;;;;;;12.60;75.99;99919.91;5032756;28;20487;-41
2021/10/20 11:20:06;;;;;;;5.97;5.38;;;;;;;12.62;75.90;99922.53;5029832;28;20036;-40
2021/10/20 11:22:32;;;;;;;7.63;6.00;;;;;;;12.61;76.14;99903.16;5024967;28;20021;-41
2021/10/20 11:24:58;;;;;;;6.50;5.85;;;;;;;12.63;76.23;99905.72;5029758;28;20136;-41